sensor_id;sensor_type;location;lat;lon;timestamp;pressure;altitude;pressure_sealevel;temperature;humidity
59337;BME280;45115;52.002;4.686;2022-10-12T00:01:04;102604.31;;;6.20;100.00
59337;BME280;45115;52.002;4.686;2022-10-12T00:03:31;102615.47;;;6.22;100.00
59337;BME280;45115;52.002;4.686;2022-10-12T00:06:03;102610.56;;;6.19;100.00
59337;BME280;45115;52.002;4.686;2022-10-12T00:08:32;102620.13;;;6.20;100.00
59337;BME280;45115;52.002;4.686;2022-10-12T00:10:59;102613.84;;;6.21;100.00
59337;BME280;45115;52.002;4.686;2022-10-12T00:13:26;102612.81;;;6.22;100.00
59337;BME280;45115;52.002;4.686;2022-10-12T00:15:53;102608.56;;;6.21;100.00
59337;BME280;45115;52.002;4.686;2022-10-12T00:18:19;102603.31;;;6.21;100.00
59337;BME280;45115;52.002;4.686;2022-10-12T00:20:46;102598.75;;;6.08;100.00
59337;BME280;45115;52.002;4.686;2022-10-12T00:23:12;102607.91;;;6.12;100.00
59337;BME280;45115;52.002;4.686;2022-10-12T00:25:41;102604.63;;;6.10;100.00
59337;BME280;45115;52.002;4.686;2022-10-12T00:28:07;102608.06;;;6.04;100.00
59337;BME280;45115;52.002;4.686;2022-10-12T00:30:38;102606.25;;;6.11;100.00
59337;BME280;45115;52.002;4.686;2022-10-12T00:33:06;102596.97;;;6.15;100.00
59337;BME280;45115;52.002;4.686;2022-10-12T00:35:33;102603.31;;;6.21;100.00
59337;BME280;45115;52.002;4.686;2022-10-12T00:37:59;102606.22;;;6.33;100.00
59337;BME280;45115;52.002;4.686;2022-10-12T00:40:26;102611.03;;;6.22;100.00
59337;BME280;45115;52.002;4.686;2022-10-12T00:42:54;102606.66;;;6.08;100.00
59337;BME280;45115;52.002;4.686;2022-10-12T00:45:22;102610.75;;;6.10;100.00
59337;BME280;45115;52.002;4.686;2022-10-12T00:47:53;102607.47;;;6.08;100.00
59337;BME280;45115;52.002;4.686;2022-10-12T00:50:25;102595.63;;;5.97;100.00
59337;BME280;45115;52.002;4.686;2022-10-12T00:52:54;102595.75;;;5.89;100.00
59337;BME280;45115;52.002;4.686;2022-10-12T00:55:26;102598.72;;;5.79;100.00
59337;BME280;45115;52.002;4.686;2022-10-12T00:57:56;102583.31;;;5.76;100.00
59337;BME280;45115;52.002;4.686;2022-10-12T01:00:23;102591.22;;;5.76;100.00
59337;BME280;45115;52.002;4.686;2022-10-12T01:02:52;102588.44;;;5.84;100.00
59337;BME280;45115;52.002;4.686;2022-10-12T01:05:20;102577.84;;;5.78;100.00
59337;BME280;45115;52.002;4.686;2022-10-12T01:07:46;102589.88;;;5.87;100.00
59337;BME280;45115;52.002;4.686;2022-10-12T01:10:13;102585.63;;;5.86;100.00
59337;BME280;45115;52.002;4.686;2022-10-12T01:12:41;102582.94;;;5.79;100.00
59337;BME280;45115;52.002;4.686;2022-10-12T01:15:10;102585.94;;;5.76;100.00
59337;BME280;45115;52.002;4.686;2022-10-12T01:17:45;102580.66;;;5.69;100.00
59337;BME280;45115;52.002;4.686;2022-10-12T01:20:27;102569.75;;;5.51;100.00
59337;BME280;45115;52.002;4.686;2022-10-12T01:23:15;102575.34;;;5.41;100.00
59337;BME280;45115;52.002;4.686;2022-10-12T01:25:57;102573.66;;;5.33;100.00
59337;BME280;45115;52.002;4.686;2022-10-12T01:28:35;102577.47;;;5.30;100.00
59337;BME280;45115;52.002;4.686;2022-10-12T01:31:15;102571.81;;;5.34;100.00
59337;BME280;45115;52.002;4.686;2022-10-12T01:33:47;102571.31;;;5.45;100.00
59337;BME280;45115;52.002;4.686;2022-10-12T01:36:20;102571.94;;;5.47;100.00
59337;BME280;45115;52.002;4.686;2022-10-12T01:38:52;102565.88;;;5.47;100.00
59337;BME280;45115;52.002;4.686;2022-10-12T01:41:27;102568.00;;;5.36;100.00
59337;BME280;45115;52.002;4.686;2022-10-12T01:43:55;102564.94;;;5.32;100.00
59337;BME280;45115;52.002;4.686;2022-10-12T01:46:39;102557.53;;;5.43;100.00
59337;BME280;45115;52.002;4.686;2022-10-12T01:49:06;102559.56;;;5.41;100.00
59337;BME280;45115;52.002;4.686;2022-10-12T01:51:39;102561.03;;;5.28;100.00
59337;BME280;45115;52.002;4.686;2022-10-12T01:54:13;102555.28;;;5.18;100.00
59337;BME280;45115;52.002;4.686;2022-10-12T01:56:48;102560.28;;;5.13;100.00
59337;BME280;45115;52.002;4.686;2022-10-12T01:59:28;102543.75;;;4.97;100.00
59337;BME280;45115;52.002;4.686;2022-10-12T02:02:03;102551.03;;;4.95;100.00
59337;BME280;45115;52.002;4.686;2022-10-12T02:04:36;102557.03;;;4.89;100.00
59337;BME280;45115;52.002;4.686;2022-10-12T02:07:07;102537.72;;;4.82;100.00
59337;BME280;45115;52.002;4.686;2022-10-12T02:09:36;102546.88;;;4.86;100.00
59337;BME280;45115;52.002;4.686;2022-10-12T02:12:09;102538.81;;;4.87;100.00
59337;BME280;45115;52.002;4.686;2022-10-12T02:14:41;102540.06;;;4.91;100.00
59337;BME280;45115;52.002;4.686;2022-10-12T02:17:12;102541.59;;;5.01;100.00
59337;BME280;45115;52.002;4.686;2022-10-12T02:19:41;102541.59;;;5.01;100.00
59337;BME280;45115;52.002;4.686;2022-10-12T02:22:10;102538.50;;;4.97;100.00
59337;BME280;45115;52.002;4.686;2022-10-12T02:24:40;102536.06;;;4.96;100.00
59337;BME280;45115;52.002;4.686;2022-10-12T02:27:10;102537.50;;;4.98;100.00
59337;BME280;45115;52.002;4.686;2022-10-12T02:29:41;102534.75;;;5.07;100.00
59337;BME280;45115;52.002;4.686;2022-10-12T02:32:16;102529.03;;;5.03;100.00
59337;BME280;45115;52.002;4.686;2022-10-12T02:34:47;102525.34;;;4.97;100.00
59337;BME280;45115;52.002;4.686;2022-10-12T02:37:23;102520.53;;;5.01;100.00
59337;BME280;45115;52.002;4.686;2022-10-12T02:39:55;102519.97;;;5.05;100.00
59337;BME280;45115;52.002;4.686;2022-10-12T02:42:27;102517.34;;;5.05;100.00
59337;BME280;45115;52.002;4.686;2022-10-12T02:44:57;102522.59;;;5.05;100.00
59337;BME280;45115;52.002;4.686;2022-10-12T02:47:28;102515.91;;;5.03;100.00
59337;BME280;45115;52.002;4.686;2022-10-12T02:49:58;102519.38;;;5.10;100.00
59337;BME280;45115;52.002;4.686;2022-10-12T02:52:25;102518.19;;;5.13;100.00
59337;BME280;45115;52.002;4.686;2022-10-12T02:54:52;102515.31;;;5.08;100.00
59337;BME280;45115;52.002;4.686;2022-10-12T02:57:19;102518.34;;;5.04;100.00
59337;BME280;45115;52.002;4.686;2022-10-12T02:59:45;102519.47;;;4.95;100.00
59337;BME280;45115;52.002;4.686;2022-10-12T03:02:12;102515.31;;;4.86;100.00
59337;BME280;45115;52.002;4.686;2022-10-12T03:04:40;102515.75;;;4.89;100.00
59337;BME280;45115;52.002;4.686;2022-10-12T03:07:07;102514.13;;;4.88;100.00
59337;BME280;45115;52.002;4.686;2022-10-12T03:09:33;102511.13;;;4.91;100.00
59337;BME280;45115;52.002;4.686;2022-10-12T03:12:00;102518.78;;;4.86;100.00
59337;BME280;45115;52.002;4.686;2022-10-12T03:14:27;102515.97;;;4.88;100.00
59337;BME280;45115;52.002;4.686;2022-10-12T03:16:53;102511.06;;;5.07;100.00
59337;BME280;45115;52.002;4.686;2022-10-12T03:19:20;102501.72;;;5.04;100.00
59337;BME280;45115;52.002;4.686;2022-10-12T03:21:48;102510.94;;;5.15;100.00
59337;BME280;45115;52.002;4.686;2022-10-12T03:24:15;102501.94;;;5.24;100.00
59337;BME280;45115;52.002;4.686;2022-10-12T03:26:41;102511.25;;;5.27;100.00
59337;BME280;45115;52.002;4.686;2022-10-12T03:29:08;102515.53;;;5.35;100.00
59337;BME280;45115;52.002;4.686;2022-10-12T03:31:34;102513.97;;;5.40;100.00
59337;BME280;45115;52.002;4.686;2022-10-12T03:34:01;102507.47;;;5.36;100.00
59337;BME280;45115;52.002;4.686;2022-10-12T03:36:28;102510.09;;;5.36;100.00
59337;BME280;45115;52.002;4.686;2022-10-12T03:38:56;102505.16;;;5.26;100.00
59337;BME280;45115;52.002;4.686;2022-10-12T03:41:23;102503.59;;;5.32;100.00
59337;BME280;45115;52.002;4.686;2022-10-12T03:43:50;102503.88;;;5.44;100.00
59337;BME280;45115;52.002;4.686;2022-10-12T03:46:16;102502.63;;;5.40;100.00
59337;BME280;45115;52.002;4.686;2022-10-12T03:48:43;102505.41;;;5.31;100.00
59337;BME280;45115;52.002;4.686;2022-10-12T03:51:10;102515.31;;;5.29;100.00
59337;BME280;45115;52.002;4.686;2022-10-12T03:53:36;102508.81;;;5.25;100.00
59337;BME280;45115;52.002;4.686;2022-10-12T03:56:05;102506.13;;;5.18;100.00
59337;BME280;45115;52.002;4.686;2022-10-12T03:58:31;102513.59;;;5.15;100.00
59337;BME280;45115;52.002;4.686;2022-10-12T04:00:58;102511.66;;;5.02;100.00
59337;BME280;45115;52.002;4.686;2022-10-12T04:03:25;102517.00;;;4.94;100.00
59337;BME280;45115;52.002;4.686;2022-10-12T04:05:52;102513.69;;;4.85;100.00
59337;BME280;45115;52.002;4.686;2022-10-12T04:08:19;102508.38;;;4.78;100.00
59337;BME280;45115;52.002;4.686;2022-10-12T04:10:46;102513.75;;;4.70;100.00
59337;BME280;45115;52.002;4.686;2022-10-12T04:13:16;102513.81;;;4.76;100.00
59337;BME280;45115;52.002;4.686;2022-10-12T04:15:43;102512.94;;;4.69;100.00
59337;BME280;45115;52.002;4.686;2022-10-12T04:18:09;102509.00;;;4.80;100.00
59337;BME280;45115;52.002;4.686;2022-10-12T04:20:36;102518.63;;;4.73;100.00
59337;BME280;45115;52.002;4.686;2022-10-12T04:23:03;102516.31;;;4.63;100.00
59337;BME280;45115;52.002;4.686;2022-10-12T04:25:29;102506.22;;;4.67;100.00
59337;BME280;45115;52.002;4.686;2022-10-12T04:27:56;102508.84;;;4.67;100.00
59337;BME280;45115;52.002;4.686;2022-10-12T04:30:24;102502.72;;;4.59;100.00
59337;BME280;45115;52.002;4.686;2022-10-12T04:32:54;102497.38;;;4.52;100.00
59337;BME280;45115;52.002;4.686;2022-10-12T04:35:21;102500.63;;;4.55;100.00
59337;BME280;45115;52.002;4.686;2022-10-12T04:37:48;102497.38;;;4.52;100.00
59337;BME280;45115;52.002;4.686;2022-10-12T04:40:14;102497.03;;;4.56;100.00
59337;BME280;45115;52.002;4.686;2022-10-12T04:42:41;102487.44;;;4.48;100.00
59337;BME280;45115;52.002;4.686;2022-10-12T04:45:08;102491.13;;;4.54;100.00
59337;BME280;45115;52.002;4.686;2022-10-12T04:47:36;102496.91;;;4.64;100.00
59337;BME280;45115;52.002;4.686;2022-10-12T04:50:04;102488.69;;;4.74;100.00
59337;BME280;45115;52.002;4.686;2022-10-12T04:52:31;102486.47;;;4.71;100.00
59337;BME280;45115;52.002;4.686;2022-10-12T04:54:57;102485.34;;;4.80;100.00
59337;BME280;45115;52.002;4.686;2022-10-12T04:57:24;102492.72;;;4.91;100.00
59337;BME280;45115;52.002;4.686;2022-10-12T04:59:50;102486.34;;;5.01;100.00
59337;BME280;45115;52.002;4.686;2022-10-12T05:02:17;102481.50;;;5.04;100.00
59337;BME280;45115;52.002;4.686;2022-10-12T05:04:45;102477.78;;;5.21;100.00
59337;BME280;45115;52.002;4.686;2022-10-12T05:07:12;102473.66;;;5.33;100.00
59337;BME280;45115;52.002;4.686;2022-10-12T05:09:38;102478.38;;;5.44;100.00
59337;BME280;45115;52.002;4.686;2022-10-12T05:12:05;102470.00;;;5.34;100.00
59337;BME280;45115;52.002;4.686;2022-10-12T05:14:32;102473.84;;;5.31;100.00
59337;BME280;45115;52.002;4.686;2022-10-12T05:16:58;102477.50;;;5.37;100.00
59337;BME280;45115;52.002;4.686;2022-10-12T05:19:25;102479.81;;;5.47;100.00
59337;BME280;45115;52.002;4.686;2022-10-12T05:21:53;102477.41;;;5.52;100.00
59337;BME280;45115;52.002;4.686;2022-10-12T05:24:20;102461.03;;;5.57;100.00
59337;BME280;45115;52.002;4.686;2022-10-12T05:26:46;102469.41;;;5.67;100.00
59337;BME280;45115;52.002;4.686;2022-10-12T05:29:13;102466.72;;;5.54;100.00
59337;BME280;45115;52.002;4.686;2022-10-12T05:31:39;102470.09;;;5.48;100.00
59337;BME280;45115;52.002;4.686;2022-10-12T05:34:06;102471.44;;;5.37;100.00
59337;BME280;45115;52.002;4.686;2022-10-12T05:36:33;102474.19;;;5.28;100.00
59337;BME280;45115;52.002;4.686;2022-10-12T05:39:01;102477.19;;;5.18;100.00
59337;BME280;45115;52.002;4.686;2022-10-12T05:41:27;102483.19;;;5.12;100.00
59337;BME280;45115;52.002;4.686;2022-10-12T05:43:54;102479.44;;;5.00;100.00
59337;BME280;45115;52.002;4.686;2022-10-12T05:46:21;102479.75;;;4.90;100.00
59337;BME280;45115;52.002;4.686;2022-10-12T05:48:47;102477.75;;;4.92;100.00
59337;BME280;45115;52.002;4.686;2022-10-12T05:51:14;102471.63;;;4.85;100.00
59337;BME280;45115;52.002;4.686;2022-10-12T05:53:41;102475.44;;;4.82;100.00
59337;BME280;45115;52.002;4.686;2022-10-12T05:56:09;102464.09;;;4.82;100.00
59337;BME280;45115;52.002;4.686;2022-10-12T05:58:35;102477.88;;;4.84;100.00
59337;BME280;45115;52.002;4.686;2022-10-12T06:01:06;102480.50;;;4.84;100.00
59337;BME280;45115;52.002;4.686;2022-10-12T06:03:33;102477.50;;;4.87;100.00
59337;BME280;45115;52.002;4.686;2022-10-12T06:06:00;102480.75;;;4.89;100.00
59337;BME280;45115;52.002;4.686;2022-10-12T06:08:28;102477.38;;;4.95;100.00
59337;BME280;45115;52.002;4.686;2022-10-12T06:10:54;102474.88;;;5.09;100.00
59337;BME280;45115;52.002;4.686;2022-10-12T06:13:22;102465.91;;;5.03;100.00
59337;BME280;45115;52.002;4.686;2022-10-12T06:15:50;102467.28;;;4.99;100.00
59337;BME280;45115;52.002;4.686;2022-10-12T06:18:17;102471.19;;;5.03;100.00
59337;BME280;45115;52.002;4.686;2022-10-12T06:20:47;102481.50;;;5.04;100.00
59337;BME280;45115;52.002;4.686;2022-10-12T06:23:15;102481.13;;;5.08;100.00
59337;BME280;45115;52.002;4.686;2022-10-12T06:25:44;102483.25;;;4.97;100.00
59337;BME280;45115;52.002;4.686;2022-10-12T06:28:11;102467.63;;;4.89;100.00
59337;BME280;45115;52.002;4.686;2022-10-12T06:30:39;102474.13;;;4.93;100.00
59337;BME280;45115;52.002;4.686;2022-10-12T06:33:06;102476.63;;;5.01;100.00
59337;BME280;45115;52.002;4.686;2022-10-12T06:35:33;102467.78;;;5.09;100.00
59337;BME280;45115;52.002;4.686;2022-10-12T06:37:59;102472.91;;;5.17;100.00
59337;BME280;45115;52.002;4.686;2022-10-12T06:40:26;102466.38;;;5.35;100.00
59337;BME280;45115;52.002;4.686;2022-10-12T06:42:53;102465.84;;;5.47;100.00
59337;BME280;45115;52.002;4.686;2022-10-12T06:45:19;102461.47;;;5.61;100.00
59337;BME280;45115;52.002;4.686;2022-10-12T06:47:47;102466.81;;;5.74;100.00
59337;BME280;45115;52.002;4.686;2022-10-12T06:50:14;102462.00;;;5.84;100.00
59337;BME280;45115;52.002;4.686;2022-10-12T06:52:40;102461.84;;;5.93;100.00
59337;BME280;45115;52.002;4.686;2022-10-12T06:55:08;102465.38;;;6.07;100.00
59337;BME280;45115;52.002;4.686;2022-10-12T06:57:36;102441.50;;;6.15;100.00
59337;BME280;45115;52.002;4.686;2022-10-12T07:00:03;102461.66;;;6.43;100.00
59337;BME280;45115;52.002;4.686;2022-10-12T07:02:30;102464.53;;;6.69;100.00
59337;BME280;45115;52.002;4.686;2022-10-12T07:04:59;102444.06;;;6.77;100.00
59337;BME280;45115;52.002;4.686;2022-10-12T07:07:28;102459.72;;;7.13;100.00
59337;BME280;45115;52.002;4.686;2022-10-12T07:09:55;102467.00;;;7.31;100.00
59337;BME280;45115;52.002;4.686;2022-10-12T07:12:22;102447.31;;;7.34;100.00
59337;BME280;45115;52.002;4.686;2022-10-12T07:14:49;102467.41;;;7.41;100.00
59337;BME280;45115;52.002;4.686;2022-10-12T07:17:15;102462.13;;;7.28;100.00
59337;BME280;45115;52.002;4.686;2022-10-12T07:19:42;102476.31;;;7.47;100.00
59337;BME280;45115;52.002;4.686;2022-10-12T07:22:10;102451.28;;;7.70;100.00
59337;BME280;45115;52.002;4.686;2022-10-12T07:24:37;102476.44;;;7.86;100.00
59337;BME280;45115;52.002;4.686;2022-10-12T07:27:06;102459.88;;;7.58;100.00
59337;BME280;45115;52.002;4.686;2022-10-12T07:29:34;102479.38;;;7.37;100.00
59337;BME280;45115;52.002;4.686;2022-10-12T07:32:02;102479.59;;;7.29;100.00
59337;BME280;45115;52.002;4.686;2022-10-12T07:34:29;102478.59;;;7.16;100.00
59337;BME280;45115;52.002;4.686;2022-10-12T07:36:56;102471.06;;;7.13;100.00
59337;BME280;45115;52.002;4.686;2022-10-12T07:39:24;102480.19;;;7.17;100.00
59337;BME280;45115;52.002;4.686;2022-10-12T07:41:51;102477.78;;;7.09;100.00
59337;BME280;45115;52.002;4.686;2022-10-12T07:44:18;102471.28;;;7.05;100.00
59337;BME280;45115;52.002;4.686;2022-10-12T07:46:45;102473.50;;;7.08;100.00
59337;BME280;45115;52.002;4.686;2022-10-12T07:49:13;102467.41;;;7.21;100.00
59337;BME280;45115;52.002;4.686;2022-10-12T07:51:40;102472.50;;;7.29;100.00
59337;BME280;45115;52.002;4.686;2022-10-12T07:54:08;102472.50;;;7.43;100.00
59337;BME280;45115;52.002;4.686;2022-10-12T07:56:36;102475.66;;;7.65;100.00
59337;BME280;45115;52.002;4.686;2022-10-12T07:59:03;102470.34;;;7.86;100.00
59337;BME280;45115;52.002;4.686;2022-10-12T08:01:31;102469.25;;;8.07;100.00
59337;BME280;45115;52.002;4.686;2022-10-12T08:03:59;102469.81;;;8.16;100.00
59337;BME280;45115;52.002;4.686;2022-10-12T08:06:27;102472.19;;;8.31;100.00
59337;BME280;45115;52.002;4.686;2022-10-12T08:08:54;102451.22;;;8.36;100.00
59337;BME280;45115;52.002;4.686;2022-10-12T08:11:21;102473.28;;;8.62;100.00
59337;BME280;45115;52.002;4.686;2022-10-12T08:13:49;102478.56;;;8.94;100.00
59337;BME280;45115;52.002;4.686;2022-10-12T08:16:18;102476.00;;;9.50;100.00
59337;BME280;45115;52.002;4.686;2022-10-12T08:18:45;102474.41;;;9.87;100.00
59337;BME280;45115;52.002;4.686;2022-10-12T08:21:14;102470.63;;;10.13;100.00
59337;BME280;45115;52.002;4.686;2022-10-12T08:23:41;102466.31;;;10.31;100.00
59337;BME280;45115;52.002;4.686;2022-10-12T08:26:09;102467.13;;;10.31;100.00
59337;BME280;45115;52.002;4.686;2022-10-12T08:28:35;102471.16;;;10.34;100.00
59337;BME280;45115;52.002;4.686;2022-10-12T08:31:07;102461.72;;;10.07;100.00
59337;BME280;45115;52.002;4.686;2022-10-12T08:33:34;102467.88;;;10.20;100.00
59337;BME280;45115;52.002;4.686;2022-10-12T08:36:01;102453.94;;;10.24;100.00
59337;BME280;45115;52.002;4.686;2022-10-12T08:38:28;102448.91;;;10.35;100.00
59337;BME280;45115;52.002;4.686;2022-10-12T08:41:01;102456.19;;;10.40;100.00
59337;BME280;45115;52.002;4.686;2022-10-12T08:43:36;102460.16;;;10.49;100.00
59337;BME280;45115;52.002;4.686;2022-10-12T08:46:06;102465.69;;;10.47;100.00
59337;BME280;45115;52.002;4.686;2022-10-12T08:48:42;102466.34;;;10.61;100.00
59337;BME280;45115;52.002;4.686;2022-10-12T08:51:13;102455.81;;;10.67;100.00
59337;BME280;45115;52.002;4.686;2022-10-12T08:53:47;102464.41;;;10.81;100.00
59337;BME280;45115;52.002;4.686;2022-10-12T08:56:16;102462.78;;;10.92;100.00
59337;BME280;45115;52.002;4.686;2022-10-12T08:58:45;102459.56;;;11.01;100.00
59337;BME280;45115;52.002;4.686;2022-10-12T09:01:20;102458.78;;;11.25;100.00
59337;BME280;45115;52.002;4.686;2022-10-12T09:04:00;102464.41;;;11.40;100.00
59337;BME280;45115;52.002;4.686;2022-10-12T09:06:33;102459.50;;;11.61;100.00
59337;BME280;45115;52.002;4.686;2022-10-12T09:09:12;102455.00;;;11.74;100.00
59337;BME280;45115;52.002;4.686;2022-10-12T09:11:55;102456.19;;;11.54;100.00
59337;BME280;45115;52.002;4.686;2022-10-12T09:14:30;102449.72;;;11.50;100.00
59337;BME280;45115;52.002;4.686;2022-10-12T09:17:01;102444.25;;;11.68;100.00
59337;BME280;45115;52.002;4.686;2022-10-12T09:19:33;102451.28;;;11.75;100.00
59337;BME280;45115;52.002;4.686;2022-10-12T09:22:03;102440.41;;;11.88;100.00
59337;BME280;45115;52.002;4.686;2022-10-12T09:24:34;102453.72;;;12.17;100.00
59337;BME280;45115;52.002;4.686;2022-10-12T09:27:18;102452.25;;;12.56;100.00
59337;BME280;45115;52.002;4.686;2022-10-12T09:29:46;102455.16;;;12.88;100.00
59337;BME280;45115;52.002;4.686;2022-10-12T09:32:39;102468.47;;;13.23;100.00
59337;BME280;45115;52.002;4.686;2022-10-12T09:35:11;102460.31;;;13.52;100.00
59337;BME280;45115;52.002;4.686;2022-10-12T09:37:39;102478.63;;;13.88;100.00
59337;BME280;45115;52.002;4.686;2022-10-12T09:40:26;102473.91;;;13.73;100.00
59337;BME280;45115;52.002;4.686;2022-10-12T09:42:57;102473.91;;;13.73;100.00
59337;BME280;45115;52.002;4.686;2022-10-12T09:45:24;102471.19;;;13.67;100.00
59337;BME280;45115;52.002;4.686;2022-10-12T09:48:11;102468.16;;;13.59;100.00
59337;BME280;45115;52.002;4.686;2022-10-12T09:50:40;102459.09;;;13.60;100.00
59337;BME280;45115;52.002;4.686;2022-10-12T09:53:24;102446.00;;;13.58;100.00
59337;BME280;45115;52.002;4.686;2022-10-12T09:55:55;102444.75;;;13.66;100.00
59337;BME280;45115;52.002;4.686;2022-10-12T09:58:22;102444.09;;;13.76;100.00
59337;BME280;45115;52.002;4.686;2022-10-12T10:01:11;102437.50;;;13.84;100.00
59337;BME280;45115;52.002;4.686;2022-10-12T10:03:42;102427.91;;;13.88;100.00
59337;BME280;45115;52.002;4.686;2022-10-12T10:06:08;102432.47;;;14.47;100.00
59337;BME280;45115;52.002;4.686;2022-10-12T10:08:40;102437.28;;;15.21;100.00
59337;BME280;45115;52.002;4.686;2022-10-12T10:11:13;102436.69;;;15.67;100.00
59337;BME280;45115;52.002;4.686;2022-10-12T10:13:49;102428.34;;;15.64;98.64
59337;BME280;45115;52.002;4.686;2022-10-12T10:16:21;102395.22;;;15.75;95.98
59337;BME280;45115;52.002;4.686;2022-10-12T10:18:59;102411.47;;;15.48;94.58
59337;BME280;45115;52.002;4.686;2022-10-12T10:21:31;102383.34;;;14.43;98.89
59337;BME280;45115;52.002;4.686;2022-10-12T10:24:00;102383.78;;;14.68;100.00
59337;BME280;45115;52.002;4.686;2022-10-12T10:26:29;102383.31;;;14.76;99.63
59337;BME280;45115;52.002;4.686;2022-10-12T10:29:14;102378.03;;;14.86;96.87
59337;BME280;45115;52.002;4.686;2022-10-12T10:31:42;102378.81;;;14.82;98.47
59337;BME280;45115;52.002;4.686;2022-10-12T10:34:19;102365.75;;;14.91;99.37
59337;BME280;45115;52.002;4.686;2022-10-12T10:36:49;102356.53;;;14.71;98.71
59337;BME280;45115;52.002;4.686;2022-10-12T10:39:19;102348.00;;;14.74;99.98
59337;BME280;45115;52.002;4.686;2022-10-12T10:41:47;102362.44;;;14.35;99.58
59337;BME280;45115;52.002;4.686;2022-10-12T10:44:26;102352.63;;;14.08;100.00
59337;BME280;45115;52.002;4.686;2022-10-12T10:46:55;102339.28;;;13.80;100.00
59337;BME280;45115;52.002;4.686;2022-10-12T10:49:32;102351.75;;;14.02;100.00
59337;BME280;45115;52.002;4.686;2022-10-12T10:52:01;102349.56;;;14.27;99.32
59337;BME280;45115;52.002;4.686;2022-10-12T10:54:31;102343.28;;;14.48;95.49
59337;BME280;45115;52.002;4.686;2022-10-12T10:57:02;102337.22;;;14.58;92.71
59337;BME280;45115;52.002;4.686;2022-10-12T10:59:41;102338.81;;;14.97;93.97
59337;BME280;45115;52.002;4.686;2022-10-12T11:02:29;102342.06;;;14.67;93.72
59337;BME280;45115;52.002;4.686;2022-10-12T11:05:03;102346.78;;;14.49;97.39
59337;BME280;45115;52.002;4.686;2022-10-12T11:07:35;102338.81;;;14.54;96.62
59337;BME280;45115;52.002;4.686;2022-10-12T11:10:12;102341.97;;;14.51;93.27
59337;BME280;45115;52.002;4.686;2022-10-12T11:12:44;102323.06;;;14.58;91.47
59337;BME280;45115;52.002;4.686;2022-10-12T11:15:19;102334.19;;;14.87;90.93
59337;BME280;45115;52.002;4.686;2022-10-12T11:17:49;102316.84;;;14.90;88.21
59337;BME280;45115;52.002;4.686;2022-10-12T11:20:29;102332.75;;;15.23;88.85
59337;BME280;45115;52.002;4.686;2022-10-12T11:23:02;102329.84;;;15.35;87.52
59337;BME280;45115;52.002;4.686;2022-10-12T11:25:34;102344.03;;;15.46;86.73
59337;BME280;45115;52.002;4.686;2022-10-12T11:28:04;102333.09;;;15.47;86.39
59337;BME280;45115;52.002;4.686;2022-10-12T11:30:37;102324.28;;;15.52;86.24
59337;BME280;45115;52.002;4.686;2022-10-12T11:33:09;102326.44;;;15.65;85.26
59337;BME280;45115;52.002;4.686;2022-10-12T11:35:41;102327.50;;;15.59;86.08
59337;BME280;45115;52.002;4.686;2022-10-12T11:38:15;102321.59;;;15.41;85.48
59337;BME280;45115;52.002;4.686;2022-10-12T11:40:46;102320.56;;;15.63;87.31
59337;BME280;45115;52.002;4.686;2022-10-12T11:43:18;102321.91;;;15.66;87.15
59337;BME280;45115;52.002;4.686;2022-10-12T11:45:48;102314.16;;;15.75;87.11
59337;BME280;45115;52.002;4.686;2022-10-12T11:48:19;102321.34;;;15.74;87.97
59337;BME280;45115;52.002;4.686;2022-10-12T11:50:49;102309.59;;;15.70;87.97
59337;BME280;45115;52.002;4.686;2022-10-12T11:53:20;102313.63;;;15.78;86.91
59337;BME280;45115;52.002;4.686;2022-10-12T11:56:00;102310.91;;;15.47;84.29
59337;BME280;45115;52.002;4.686;2022-10-12T11:58:32;102306.59;;;15.46;85.72
59337;BME280;45115;52.002;4.686;2022-10-12T12:01:04;102309.28;;;15.46;83.47
59337;BME280;45115;52.002;4.686;2022-10-12T12:03:45;102302.06;;;15.51;83.83
59337;BME280;45115;52.002;4.686;2022-10-12T12:06:54;102296.72;;;15.51;84.58
59337;BME280;45115;52.002;4.686;2022-10-12T12:09:41;102291.06;;;15.22;86.32
59337;BME280;45115;52.002;4.686;2022-10-12T12:12:17;102300.09;;;15.10;85.87
59337;BME280;45115;52.002;4.686;2022-10-12T12:15:09;102299.81;;;15.01;85.23
59337;BME280;45115;52.002;4.686;2022-10-12T12:18:09;102305.22;;;15.33;85.81
59337;BME280;45115;52.002;4.686;2022-10-12T12:21:00;102302.34;;;15.60;85.27
59337;BME280;45115;52.002;4.686;2022-10-12T12:23:33;102290.06;;;15.75;83.75
59337;BME280;45115;52.002;4.686;2022-10-12T12:26:15;102291.13;;;15.79;82.19
59337;BME280;45115;52.002;4.686;2022-10-12T12:28:43;102294.09;;;15.88;81.72
59337;BME280;45115;52.002;4.686;2022-10-12T12:31:14;102283.38;;;15.88;81.62
59337;BME280;45115;52.002;4.686;2022-10-12T12:33:42;102294.63;;;15.95;82.47
59337;BME280;45115;52.002;4.686;2022-10-12T12:36:13;102283.38;;;15.88;82.43
59337;BME280;45115;52.002;4.686;2022-10-12T12:38:48;102293.84;;;16.00;82.07
59337;BME280;45115;52.002;4.686;2022-10-12T12:41:16;102286.88;;;15.78;81.64
59337;BME280;45115;52.002;4.686;2022-10-12T12:43:55;102294.59;;;15.85;82.63
59337;BME280;45115;52.002;4.686;2022-10-12T12:46:26;102288.47;;;15.79;84.11
59337;BME280;45115;52.002;4.686;2022-10-12T12:49:27;102293.81;;;15.84;85.41
59337;BME280;45115;52.002;4.686;2022-10-12T12:51:55;102299.16;;;15.84;85.61
59337;BME280;45115;52.002;4.686;2022-10-12T12:54:24;102294.59;;;15.69;84.80
59337;BME280;45115;52.002;4.686;2022-10-12T12:57:04;102283.63;;;15.65;86.18
59337;BME280;45115;52.002;4.686;2022-10-12T13:00:07;102272.66;;;15.51;86.49
59337;BME280;45115;52.002;4.686;2022-10-12T13:03:28;102258.75;;;15.54;87.00
59337;BME280;45115;52.002;4.686;2022-10-12T13:09:19;102242.41;;;15.87;84.26